Buoy 44845

sailwx.info

Track history (hours):
 
Tides and Currents Weather Stations Pressure Air Temp Water Temp Dewpoint Dewpoint Depression Visibility Wind Speed Wind Dir Waves Ship Positions

Drifting buoy 44845

Last reported at 2014-Jul-30 02:01 UTC. Time now 2014-Jul-30 03:08 UTC.
Position N 62°57' W 007°43'.

Water temperature 10.3 ° C

Date/timePositionNaut miles runAvg speedWind from/ knotsBaromVisibWave heightAir tempDewpointWater temp
2014-Jul-30 02:01N 62°57' W 007°43'0 0.5 10.3
2014-Jul-30 01:01N 62°57' W 007°43'0 0.3 10.3
2014-Jul-30 00:01N 62°57' W 007°43'0 0.3 10.2
2014-Jul-29 23:01N 62°57' W 007°44'0 0.2 10.2
2014-Jul-29 21:01N 62°57' W 007°44'1 0.4 10.2
2014-Jul-29 19:01N 62°57' W 007°42'1 0.6 10.4
2014-Jul-29 18:01N 62°57' W 007°41'1 0.8 10.3
2014-Jul-29 17:01N 62°57' W 007°39'1 0.7 10.2
2014-Jul-29 16:01N 62°57' W 007°38'0 0.5 10.2
2014-Jul-29 15:01N 62°58' W 007°37'0 0.3 10.2
2014-Jul-29 14:01N 62°58' W 007°36'0 0.2 10.2
2014-Jul-29 13:01N 62°57' W 007°36'0 0.3 10.3
2014-Jul-29 12:01N 62°57' W 007°37'1 0.5 10.1
2014-Jul-29 11:01N 62°57' W 007°37'1 0.6 10.1
2014-Jul-29 10:01N 62°56' W 007°38'1 0.6 10.1
2014-Jul-29 09:01N 62°55' W 007°38'0 0.2 10.1
2014-Jul-29 08:01N 62°55' W 007°38'0 0.2 10.3
2014-Jul-29 07:01N 62°55' W 007°39'0 0.2 10.1
2014-Jul-29 06:01N 62°55' W 007°39'0 0.2 10.2
2014-Jul-29 05:01N 62°55' W 007°39'0 0.4 10.2
2014-Jul-29 04:01N 62°54' W 007°38'0 0.3 10.2
2014-Jul-29 03:01N 62°54' W 007°38'0 0.4 10.2
2014-Jul-29 02:01N 62°54' W 007°38'1 0.6 10.3
2014-Jul-29 01:01N 62°53' W 007°39'1 0.6 10.4
2014-Jul-29 00:01N 62°53' W 007°39'1 0.7 10.3
2014-Jul-28 23:01N 62°52' W 007°40'1 0.9 10.2
2014-Jul-28 22:01N 62°51' W 007°42'1 1.0 10.3
2014-Jul-28 21:01N 62°51' W 007°43'1 1.1 10.4
2014-Jul-28 20:01N 62°50' W 007°45'1 1.0 10.5
2014-Jul-28 19:01N 62°49' W 007°47'1 0.9 10.6
2014-Jul-28 18:01N 62°49' W 007°48'1 1.2 10.5
2014-Jul-28 17:01N 62°48' W 007°49'0 0.0 10.6
2014-Jul-28 16:01N 62°48' W 007°49'0 0.4 10.7
2014-Jul-28 15:01N 62°47' W 007°50'0 0.4 10.7
2014-Jul-28 14:01N 62°47' W 007°50'0 0.5 10.7
2014-Jul-28 13:01N 62°47' W 007°51'0 0.4 10.6
2014-Jul-28 12:01N 62°46' W 007°52'1 0.8 10.6
2014-Jul-28 11:01N 62°46' W 007°53'1 1.2 10.6
2014-Jul-28 10:01N 62°46' W 007°56'1 1.2 10.6
2014-Jul-28 09:01N 62°46' W 007°58'1 1.2 10.5
2014-Jul-28 08:01N 62°45' W 008°01'1 1.0 10.5
2014-Jul-28 07:01N 62°45' W 008°03'1 0.7 10.5
2014-Jul-28 06:01N 62°45' W 008°04'0 0.3 10.4
2014-Jul-28 05:01N 62°45' W 008°05'0 0.1 10.5
2014-Jul-28 04:01N 62°44' W 008°05'0 0.2 10.4
2014-Jul-28 03:01N 62°44' W 008°05'0 0.3 10.3
2014-Jul-28 02:01N 62°44' W 008°04'0 0.3 10.3
2014-Jul-28 01:01N 62°45' W 008°04'0 0.3 10.3
2014-Jul-28 00:01N 62°45' W 008°04'0 0.3 10.4
2014-Jul-27 23:01N 62°45' W 008°05'1 0.6 10.3
2014-Jul-27 22:01N 62°45' W 008°06'1 1.0 10.3
2014-Jul-27 21:01N 62°45' W 008°08'1 1.1 10.3
2014-Jul-27 20:01N 62°45' W 008°10'1 0.9 10.4
2014-Jul-27 19:01N 62°45' W 008°12'1 0.5 10.4
2014-Jul-27 18:01N 62°45' W 008°13'0 0.2 10.4
2014-Jul-27 16:01N 62°45' W 008°13'1 0.7 10.5
2014-Jul-27 15:01N 62°45' W 008°11'1 0.9 10.5
2014-Jul-27 14:01N 62°46' W 008°10'1 1.0 10.5
2014-Jul-27 13:01N 62°46' W 008°08'1 1.0 10.5
2014-Jul-27 12:01N 62°47' W 008°07'1 0.9 10.5
2014-Jul-27 11:01N 62°48' W 008°08'1 1.1 10.3
2014-Jul-27 10:01N 62°49' W 008°10'1 1.2 10.4
2014-Jul-27 09:01N 62°49' W 008°12'1 1.0 10.4
2014-Jul-27 08:01N 62°49' W 008°15'1 0.6 10.5
2014-Jul-27 07:01N 62°48' W 008°16'0 0.4 10.6
2014-Jul-27 06:01N 62°48' W 008°15'0 0.4 10.2
2014-Jul-27 05:01N 62°49' W 008°14'1 0.8 10.3
2014-Jul-27 04:01N 62°49' W 008°14'1 1.0 10.4
2014-Jul-27 03:01N 62°50' W 008°13'1 1.0 10.4
2014-Jul-27 02:01N 62°51' W 008°13'1 0.7 10.3
2014-Jul-27 01:01N 62°52' W 008°13'1 0.8 10.4
2014-Jul-27 00:01N 62°53' W 008°13'1 0.9 10.5
2014-Jul-26 23:01N 62°54' W 008°14'1 0.8 10.5
2014-Jul-26 22:01N 62°54' W 008°15'1 0.9 10.7
2014-Jul-26 21:01N 62°54' W 008°17'1 0.9 10.4
2014-Jul-26 20:01N 62°55' W 008°19'1 0.6 10.5
2014-Jul-26 19:01N 62°55' W 008°20'0 0.3 10.4
2014-Jul-26 18:01N 62°55' W 008°20'1 0.6 10.6
2014-Jul-26 17:01N 62°56' W 008°19'1 1.2 10.5
2014-Jul-26 16:01N 62°57' W 008°18'1 1.4 10.3
2014-Jul-26 15:01N 62°58' W 008°16'2 1.6 10.6
2014-Jul-26 14:01N 62°59' W 008°14'1 1.4 10.7
2014-Jul-26 13:01N 63°01' W 008°13'1 1.1 10.6
2014-Jul-26 12:01N 63°02' W 008°12'1 0.7 10.4
2014-Jul-26 11:01N 63°02' W 008°12'0 0.4 10.4
2014-Jul-26 10:01N 63°03' W 008°12'0 0.0 10.7
2014-Jul-26 09:01N 63°03' W 008°12'0 0.4 11.0
2014-Jul-26 08:01N 63°03' W 008°12'1 0.7 10.2
2014-Jul-26 06:01N 63°02' W 008°09'1 0.8 6.9
2014-Jul-26 05:01N 63°01' W 008°08'1 0.8 7.0
2014-Jul-26 04:01N 63°01' W 008°06'1 0.9 7.0
2014-Jul-26 03:01N 63°01' W 008°04'1 0.7 6.6
2014-Jul-26 02:01N 63°01' W 008°02'0 0.4 7.1
2014-Jul-26 01:01N 63°01' W 008°02'0 0.5 6.9
2014-Jul-26 00:01N 63°00' W 008°01'2 0.8 7.0
2014-Jul-25 22:01N 62°59' W 008°01'1 1.0 6.9
2014-Jul-25 21:01N 62°58' W 008°02'1 1.0 6.5
2014-Jul-25 20:01N 62°57' W 008°03'1 1.0 6.5
2014-Jul-25 19:01N 62°56' W 008°04'1 0.9 6.6
2014-Jul-25 18:01N 62°55' W 008°04'1 0.7 7.5
2014-Jul-25 17:01N 62°55' W 008°05'0 0.4 8.0
2014-Jul-25 16:01N 62°54' W 008°05'0 0.2 11.8
2014-Jul-25 15:01N 62°54' W 008°05'0 0.2 11.5
2014-Jul-25 14:01N 62°54' W 008°04'0 0.1 11.5
2014-Jul-25 13:01N 62°54' W 008°04'0 0.2 8.2
2014-Jul-25 12:01N 62°54' W 008°05'0 0.5 10.8
2014-Jul-25 11:01N 62°54' W 008°06'1 0.8 11.8
2014-Jul-25 10:01N 62°54' W 008°07'1 0.9 13.1
2014-Jul-25 09:01N 62°54' W 008°09'1 0.9 12.9
2014-Jul-25 08:01N 62°53' W 008°11'1 1.0 12.8
2014-Jul-25 07:01N 62°53' W 008°13'1 0.9 12.8
2014-Jul-25 06:01N 62°52' W 008°15'1 0.6 12.8
2014-Jul-25 05:01N 62°52' W 008°15'0 0.0 12.8
2014-Jul-25 04:01N 62°52' W 008°15'0 0.4 12.8
2014-Jul-25 03:01N 62°52' W 008°14'1 0.7 12.8
2014-Jul-25 02:01N 62°53' W 008°14'1 0.8 12.7
2014-Jul-25 01:01N 62°54' W 008°13'1 0.7 12.7
2014-Jul-25 00:01N 62°54' W 008°14'1 0.8 12.7
2014-Jul-24 23:01N 62°55' W 008°14'1 0.9 12.7
2014-Jul-24 22:01N 62°55' W 008°16'1 0.9 12.7
2014-Jul-24 21:01N 62°56' W 008°18'1 0.9 12.7
2014-Jul-24 20:01N 62°56' W 008°20'1 0.7 12.7
2014-Jul-24 19:01N 62°55' W 008°21'0 0.4 12.7
2014-Jul-24 18:01N 62°55' W 008°22'0 0.1 12.7
2014-Jul-24 17:01N 62°55' W 008°22'0 0.3 12.7
2014-Jul-24 16:01N 62°55' W 008°21'1 0.8 12.7
2014-Jul-24 15:01N 62°56' W 008°20'1 1.1 12.7
2014-Jul-24 14:01N 62°57' W 008°19'1 1.1 12.7
2014-Jul-24 13:01N 62°58' W 008°18'1 0.7 12.7
2014-Jul-24 11:01N 62°59' W 008°18'1 0.5 12.6
2014-Jul-24 10:01N 62°60' W 008°19'0 0.3 12.6
2014-Jul-24 09:01N 62°60' W 008°20'0 0.3 12.6
2014-Jul-24 08:01N 62°60' W 008°20'0 0.3 12.7
2014-Jul-24 07:01N 62°60' W 008°21'0 0.3 12.7
2014-Jul-24 06:01N 62°60' W 008°21'0 0.1 12.7
2014-Jul-24 05:01N 62°60' W 008°21'0 0.4 12.7
2014-Jul-24 04:01N 62°60' W 008°20'1 0.8 12.8
2014-Jul-24 03:01N 63°00' W 008°19'1 1.0 12.8
2014-Jul-24 02:01N 63°01' W 008°17'1 1.2 12.8
2014-Jul-24 01:01N 63°01' W 008°15'1 1.0 12.9
2014-Jul-24 00:01N 63°02' W 008°14'1 0.7 12.9
2014-Jul-23 23:01N 63°03' W 008°13'0 0.4 12.9
2014-Jul-23 22:01N 63°03' W 008°12'1 0.5 12.9
2014-Jul-23 21:01N 63°03' W 008°11'1 0.5 12.9
2014-Jul-23 20:01N 63°03' W 008°10'0 0.4 12.9
2014-Jul-23 19:01N 63°03' W 008°09'0 0.4 12.9
2014-Jul-23 18:01N 63°03' W 008°08'1 0.5 12.9
2014-Jul-23 17:01N 63°02' W 008°08'1 0.6 13.0
2014-Jul-23 16:01N 63°02' W 008°07'1 0.7 13.0
2014-Jul-23 15:01N 63°01' W 008°06'1 0.9 10.8
2014-Jul-23 14:01N 63°01' W 008°04'1 0.9 11.3
2014-Jul-23 13:01N 63°00' W 008°02'1 0.6 11.2
2014-Jul-23 12:01N 62°60' W 008°01'0 0.5 11.2
2014-Jul-23 11:01N 62°59' W 008°00'0 0.2 11.2
2014-Jul-23 10:01N 62°59' W 008°01'1 0.8 11.1
2014-Jul-23 09:01N 62°59' W 008°02'1 1.3 11.1
2014-Jul-23 08:01N 62°58' W 008°04'1 1.5 11.1
2014-Jul-23 07:01N 62°57' W 008°06'1 1.3 11.0
2014-Jul-23 06:01N 62°56' W 008°09'1 1.3 10.9
2014-Jul-23 05:01N 62°55' W 008°11'1 1.2 11.0
2014-Jul-23 04:01N 62°54' W 008°12'1 0.7 11.0
2014-Jul-23 03:01N 62°54' W 008°14'0 0.5 11.0
2014-Jul-23 02:01N 62°53' W 008°14'0 0.3 11.1
2014-Jul-23 01:01N 62°53' W 008°15'0 0.3 11.1
2014-Jul-23 00:01N 62°54' W 008°15'1 0.6 11.0
2014-Jul-22 22:01N 62°54' W 008°18'1 0.8 11.0
2014-Jul-22 21:01N 62°54' W 008°19'1 0.8 11.1
2014-Jul-22 20:01N 62°54' W 008°21'2 0.9 11.1
2014-Jul-22 18:01N 62°54' W 008°25'1 0.8 11.1
2014-Jul-22 17:01N 62°54' W 008°26'1 0.6 11.1
2014-Jul-22 16:01N 62°53' W 008°27'0 0.3 11.1
2014-Jul-22 15:01N 62°53' W 008°28'0 0.1 11.1
2014-Jul-22 14:01N 62°53' W 008°28'0 0.3 11.0
2014-Jul-22 13:01N 62°54' W 008°28'1 0.6 11.0
2014-Jul-22 12:01N 62°54' W 008°28'1 0.8 11.0
2014-Jul-22 11:01N 62°55' W 008°28'1 0.8 11.0
2014-Jul-22 10:01N 62°56' W 008°28'1 1.0 11.0
2014-Jul-22 09:01N 62°57' W 008°30'1 0.9 11.0
2014-Jul-22 08:01N 62°57' W 008°32'1 0.9 11.0
2014-Jul-22 07:01N 62°57' W 008°33'1 0.8 11.0
2014-Jul-22 06:01N 62°57' W 008°35'1 0.7 11.0
2014-Jul-22 05:01N 62°57' W 008°37'0 0.5 11.0
2014-Jul-22 04:01N 62°56' W 008°37'0 0.4 11.1
2014-Jul-22 03:01N 62°56' W 008°38'0 0.2 11.1
2014-Jul-22 02:01N 62°56' W 008°37'0 0.4 11.1
2014-Jul-22 01:01N 62°56' W 008°37'1 0.8 11.1
2014-Jul-22 00:01N 62°57' W 008°36'1 1.0 11.1
2014-Jul-21 23:01N 62°58' W 008°35'1 1.0 11.1
2014-Jul-21 22:01N 62°59' W 008°35'1 0.9 11.1
2014-Jul-21 21:01N 62°60' W 008°35'1 0.6 11.2
2014-Jul-21 20:01N 63°00' W 008°36'1 0.5 11.2
2014-Jul-21 19:01N 63°00' W 008°37'0 0.4 11.2
2014-Jul-21 18:01N 63°00' W 008°38'0 0.3 11.2
2014-Jul-21 17:01N 63°00' W 008°39'0 0.4 11.2
2014-Jul-21 16:01N 63°01' W 008°39'0 0.4 11.3
2014-Jul-21 15:01N 63°01' W 008°40'0 0.2 11.4
2014-Jul-21 14:01N 63°01' W 008°40'0 0.1 11.5
2014-Jul-21 13:01N 63°01' W 008°40'0 0.3 12.0
2014-Jul-21 12:01N 63°01' W 008°40'1 0.6 11.9
2014-Jul-21 11:01N 63°02' W 008°39'1 0.8 11.3
2014-Jul-21 10:01N 63°02' W 008°38'1 0.8 11.2
2014-Jul-21 09:01N 63°03' W 008°38'1 0.8 11.2
2014-Jul-21 08:01N 63°04' W 008°38'1 0.8 11.2
2014-Jul-21 07:01N 63°04' W 008°40'1 0.8 11.2
2014-Jul-21 06:01N 63°05' W 008°41'1 0.9 11.2
2014-Jul-21 05:01N 63°04' W 008°43'1 0.9 11.2
2014-Jul-21 04:01N 63°04' W 008°45'1 0.7 11.2
2014-Jul-21 03:01N 63°03' W 008°46'1 0.5 11.2
2014-Jul-21 02:01N 63°03' W 008°46'1 0.5 11.2
2014-Jul-21 01:01N 63°03' W 008°45'1 0.6 11.1
2014-Jul-21 00:01N 63°03' W 008°44'1 0.6 11.2
2014-Jul-20 23:01N 63°03' W 008°43'1 0.7 11.2
2014-Jul-20 22:01N 63°03' W 008°42'1 0.8 11.1
2014-Jul-20 21:01N 63°04' W 008°41'1 0.7 11.2
2014-Jul-20 20:01N 63°05' W 008°41'0 0.5 11.2
2014-Jul-20 19:01N 63°05' W 008°41'1 0.6 11.2
2014-Jul-20 18:01N 63°06' W 008°42'1 0.7 11.2
2014-Jul-20 17:01N 63°06' W 008°44'1 0.8 11.2
2014-Jul-20 16:01N 63°05' W 008°46'1 0.8 11.2
2014-Jul-20 15:01N 63°05' W 008°47'1 0.7 11.1
2014-Jul-20 14:01N 63°04' W 008°48'1 0.6 11.0
2014-Jul-20 13:01N 63°04' W 008°47'1 0.8 11.1
2014-Jul-20 12:01N 63°04' W 008°46'1 0.9 11.2
2014-Jul-20 11:01N 63°04' W 008°44'1 1.0 11.2
2014-Jul-20 10:01N 63°04' W 008°42'1 1.2 11.3
2014-Jul-20 09:01N 63°05' W 008°40'1 1.0 11.2
2014-Jul-20 08:01N 63°06' W 008°39'1 0.7 11.2
2014-Jul-20 07:01N 63°07' W 008°39'1 0.6 11.2
2014-Jul-20 06:01N 63°07' W 008°41'0 0.5 11.2
2014-Jul-20 05:01N 63°07' W 008°42'1 0.5 11.1
2014-Jul-20 04:01N 63°07' W 008°43'1 0.7 11.1
2014-Jul-20 03:01N 63°06' W 008°44'1 0.5 11.2
2014-Jul-20 02:01N 63°06' W 008°44'   11.2
Track history (hours):
 
Tides and Currents Weather Stations Pressure Air Temp Water Temp Dewpoint Dewpoint Depression Visibility Wind Speed Wind Dir Waves Ship Positions

Drifting buoy 44845

Last reported at 2014-Jul-30 02:01 UTC. Time now 2014-Jul-30 03:08 UTC.
Position N 62°57' W 007°43'.

Water temperature 10.3 ° C

Date/timePositionNaut miles runAvg speedWind from/ knotsBaromVisibWave heightAir tempDewpointWater temp
2014-Jul-30 02:01N 62°57' W 007°43'0 0.5 10.3
2014-Jul-30 01:01N 62°57' W 007°43'0 0.3 10.3
2014-Jul-30 00:01N 62°57' W 007°43'0 0.3 10.2
2014-Jul-29 23:01N 62°57' W 007°44'0 0.2 10.2
2014-Jul-29 21:01N 62°57' W 007°44'1 0.4 10.2
2014-Jul-29 19:01N 62°57' W 007°42'1 0.6 10.4
2014-Jul-29 18:01N 62°57' W 007°41'1 0.8 10.3
2014-Jul-29 17:01N 62°57' W 007°39'1 0.7 10.2
2014-Jul-29 16:01N 62°57' W 007°38'0 0.5 10.2
2014-Jul-29 15:01N 62°58' W 007°37'0 0.3 10.2
2014-Jul-29 14:01N 62°58' W 007°36'0 0.2 10.2
2014-Jul-29 13:01N 62°57' W 007°36'0 0.3 10.3
2014-Jul-29 12:01N 62°57' W 007°37'1 0.5 10.1
2014-Jul-29 11:01N 62°57' W 007°37'1 0.6 10.1
2014-Jul-29 10:01N 62°56' W 007°38'1 0.6 10.1
2014-Jul-29 09:01N 62°55' W 007°38'0 0.2 10.1
2014-Jul-29 08:01N 62°55' W 007°38'0 0.2 10.3
2014-Jul-29 07:01N 62°55' W 007°39'0 0.2 10.1
2014-Jul-29 06:01N 62°55' W 007°39'0 0.2 10.2
2014-Jul-29 05:01N 62°55' W 007°39'0 0.4 10.2
2014-Jul-29 04:01N 62°54' W 007°38'0 0.3 10.2
2014-Jul-29 03:01N 62°54' W 007°38'0 0.4 10.2
2014-Jul-29 02:01N 62°54' W 007°38'1 0.6 10.3
2014-Jul-29 01:01N 62°53' W 007°39'1 0.6 10.4
2014-Jul-29 00:01N 62°53' W 007°39'1 0.7 10.3
2014-Jul-28 23:01N 62°52' W 007°40'1 0.9 10.2
2014-Jul-28 22:01N 62°51' W 007°42'1 1.0 10.3
2014-Jul-28 21:01N 62°51' W 007°43'1 1.1 10.4
2014-Jul-28 20:01N 62°50' W 007°45'1 1.0 10.5
2014-Jul-28 19:01N 62°49' W 007°47'1 0.9 10.6
2014-Jul-28 18:01N 62°49' W 007°48'1 1.2 10.5
2014-Jul-28 17:01N 62°48' W 007°49'0 0.0 10.6
2014-Jul-28 16:01N 62°48' W 007°49'0 0.4 10.7
2014-Jul-28 15:01N 62°47' W 007°50'0 0.4 10.7
2014-Jul-28 14:01N 62°47' W 007°50'0 0.5 10.7
2014-Jul-28 13:01N 62°47' W 007°51'0 0.4 10.6
2014-Jul-28 12:01N 62°46' W 007°52'1 0.8 10.6
2014-Jul-28 11:01N 62°46' W 007°53'1 1.2 10.6
2014-Jul-28 10:01N 62°46' W 007°56'1 1.2 10.6
2014-Jul-28 09:01N 62°46' W 007°58'1 1.2 10.5
2014-Jul-28 08:01N 62°45' W 008°01'1 1.0 10.5
2014-Jul-28 07:01N 62°45' W 008°03'1 0.7 10.5
2014-Jul-28 06:01N 62°45' W 008°04'0 0.3 10.4
2014-Jul-28 05:01N 62°45' W 008°05'0 0.1 10.5
2014-Jul-28 04:01N 62°44' W 008°05'0 0.2 10.4
2014-Jul-28 03:01N 62°44' W 008°05'0 0.3 10.3
2014-Jul-28 02:01N 62°44' W 008°04'0 0.3 10.3
2014-Jul-28 01:01N 62°45' W 008°04'0 0.3 10.3
2014-Jul-28 00:01N 62°45' W 008°04'0 0.3 10.4
2014-Jul-27 23:01N 62°45' W 008°05'1 0.6 10.3
2014-Jul-27 22:01N 62°45' W 008°06'1 1.0 10.3
2014-Jul-27 21:01N 62°45' W 008°08'1 1.1 10.3
2014-Jul-27 20:01N 62°45' W 008°10'1 0.9 10.4
2014-Jul-27 19:01N 62°45' W 008°12'1 0.5 10.4
2014-Jul-27 18:01N 62°45' W 008°13'0 0.2 10.4
2014-Jul-27 16:01N 62°45' W 008°13'1 0.7 10.5
2014-Jul-27 15:01N 62°45' W 008°11'1 0.9 10.5
2014-Jul-27 14:01N 62°46' W 008°10'1 1.0 10.5
2014-Jul-27 13:01N 62°46' W 008°08'1 1.0 10.5
2014-Jul-27 12:01N 62°47' W 008°07'1 0.9 10.5
2014-Jul-27 11:01N 62°48' W 008°08'1 1.1 10.3
2014-Jul-27 10:01N 62°49' W 008°10'1 1.2 10.4
2014-Jul-27 09:01N 62°49' W 008°12'1 1.0 10.4
2014-Jul-27 08:01N 62°49' W 008°15'1 0.6 10.5
2014-Jul-27 07:01N 62°48' W 008°16'0 0.4 10.6
2014-Jul-27 06:01N 62°48' W 008°15'0 0.4 10.2
2014-Jul-27 05:01N 62°49' W 008°14'1 0.8 10.3
2014-Jul-27 04:01N 62°49' W 008°14'1 1.0 10.4
2014-Jul-27 03:01N 62°50' W 008°13'1 1.0 10.4
2014-Jul-27 02:01N 62°51' W 008°13'1 0.7 10.3
2014-Jul-27 01:01N 62°52' W 008°13'1 0.8 10.4
2014-Jul-27 00:01N 62°53' W 008°13'1 0.9 10.5
2014-Jul-26 23:01N 62°54' W 008°14'1 0.8 10.5
2014-Jul-26 22:01N 62°54' W 008°15'1 0.9 10.7
2014-Jul-26 21:01N 62°54' W 008°17'1 0.9 10.4
2014-Jul-26 20:01N 62°55' W 008°19'1 0.6 10.5
2014-Jul-26 19:01N 62°55' W 008°20'0 0.3 10.4
2014-Jul-26 18:01N 62°55' W 008°20'1 0.6 10.6
2014-Jul-26 17:01N 62°56' W 008°19'1 1.2 10.5
2014-Jul-26 16:01N 62°57' W 008°18'1 1.4 10.3
2014-Jul-26 15:01N 62°58' W 008°16'2 1.6 10.6
2014-Jul-26 14:01N 62°59' W 008°14'1 1.4 10.7
2014-Jul-26 13:01N 63°01' W 008°13'1 1.1 10.6
2014-Jul-26 12:01N 63°02' W 008°12'1 0.7 10.4
2014-Jul-26 11:01N 63°02' W 008°12'0 0.4 10.4
2014-Jul-26 10:01N 63°03' W 008°12'0 0.0 10.7
2014-Jul-26 09:01N 63°03' W 008°12'0 0.4 11.0
2014-Jul-26 08:01N 63°03' W 008°12'1 0.7 10.2
2014-Jul-26 06:01N 63°02' W 008°09'1 0.8 6.9
2014-Jul-26 05:01N 63°01' W 008°08'1 0.8 7.0
2014-Jul-26 04:01N 63°01' W 008°06'1 0.9 7.0
2014-Jul-26 03:01N 63°01' W 008°04'1 0.7 6.6
2014-Jul-26 02:01N 63°01' W 008°02'0 0.4 7.1
2014-Jul-26 01:01N 63°01' W 008°02'0 0.5 6.9
2014-Jul-26 00:01N 63°00' W 008°01'2 0.8 7.0
2014-Jul-25 22:01N 62°59' W 008°01'1 1.0 6.9
2014-Jul-25 21:01N 62°58' W 008°02'1 1.0 6.5
2014-Jul-25 20:01N 62°57' W 008°03'1 1.0 6.5
2014-Jul-25 19:01N 62°56' W 008°04'1 0.9 6.6
2014-Jul-25 18:01N 62°55' W 008°04'1 0.7 7.5
2014-Jul-25 17:01N 62°55' W 008°05'0 0.4 8.0
2014-Jul-25 16:01N 62°54' W 008°05'0 0.2 11.8
2014-Jul-25 15:01N 62°54' W 008°05'0 0.2 11.5
2014-Jul-25 14:01N 62°54' W 008°04'0 0.1 11.5
2014-Jul-25 13:01N 62°54' W 008°04'0 0.2 8.2
2014-Jul-25 12:01N 62°54' W 008°05'0 0.5 10.8
2014-Jul-25 11:01N 62°54' W 008°06'1 0.8 11.8
2014-Jul-25 10:01N 62°54' W 008°07'1 0.9 13.1
2014-Jul-25 09:01N 62°54' W 008°09'1 0.9 12.9
2014-Jul-25 08:01N 62°53' W 008°11'1 1.0 12.8
2014-Jul-25 07:01N 62°53' W 008°13'1 0.9 12.8
2014-Jul-25 06:01N 62°52' W 008°15'1 0.6 12.8
2014-Jul-25 05:01N 62°52' W 008°15'0 0.0 12.8
2014-Jul-25 04:01N 62°52' W 008°15'0 0.4 12.8
2014-Jul-25 03:01N 62°52' W 008°14'1 0.7 12.8
2014-Jul-25 02:01N 62°53' W 008°14'1 0.8 12.7
2014-Jul-25 01:01N 62°54' W 008°13'1 0.7 12.7
2014-Jul-25 00:01N 62°54' W 008°14'1 0.8 12.7
2014-Jul-24 23:01N 62°55' W 008°14'1 0.9 12.7
2014-Jul-24 22:01N 62°55' W 008°16'1 0.9 12.7
2014-Jul-24 21:01N 62°56' W 008°18'1 0.9 12.7
2014-Jul-24 20:01N 62°56' W 008°20'1 0.7 12.7
2014-Jul-24 19:01N 62°55' W 008°21'0 0.4 12.7
2014-Jul-24 18:01N 62°55' W 008°22'0 0.1 12.7
2014-Jul-24 17:01N 62°55' W 008°22'0 0.3 12.7
2014-Jul-24 16:01N 62°55' W 008°21'1 0.8 12.7
2014-Jul-24 15:01N 62°56' W 008°20'1 1.1 12.7
2014-Jul-24 14:01N 62°57' W 008°19'1 1.1 12.7
2014-Jul-24 13:01N 62°58' W 008°18'1 0.7 12.7
2014-Jul-24 11:01N 62°59' W 008°18'1 0.5 12.6
2014-Jul-24 10:01N 62°60' W 008°19'0 0.3 12.6
2014-Jul-24 09:01N 62°60' W 008°20'0 0.3 12.6
2014-Jul-24 08:01N 62°60' W 008°20'0 0.3 12.7
2014-Jul-24 07:01N 62°60' W 008°21'0 0.3 12.7
2014-Jul-24 06:01N 62°60' W 008°21'0 0.1 12.7
2014-Jul-24 05:01N 62°60' W 008°21'0 0.4 12.7
2014-Jul-24 04:01N 62°60' W 008°20'1 0.8 12.8
2014-Jul-24 03:01N 63°00' W 008°19'1 1.0 12.8
2014-Jul-24 02:01N 63°01' W 008°17'1 1.2 12.8
2014-Jul-24 01:01N 63°01' W 008°15'1 1.0 12.9
2014-Jul-24 00:01N 63°02' W 008°14'1 0.7 12.9
2014-Jul-23 23:01N 63°03' W 008°13'0 0.4 12.9
2014-Jul-23 22:01N 63°03' W 008°12'1 0.5 12.9
2014-Jul-23 21:01N 63°03' W 008°11'1 0.5 12.9
2014-Jul-23 20:01N 63°03' W 008°10'0 0.4 12.9
2014-Jul-23 19:01N 63°03' W 008°09'0 0.4 12.9
2014-Jul-23 18:01N 63°03' W 008°08'1 0.5 12.9
2014-Jul-23 17:01N 63°02' W 008°08'1 0.6 13.0
2014-Jul-23 16:01N 63°02' W 008°07'1 0.7 13.0
2014-Jul-23 15:01N 63°01' W 008°06'1 0.9 10.8
2014-Jul-23 14:01N 63°01' W 008°04'1 0.9 11.3
2014-Jul-23 13:01N 63°00' W 008°02'1 0.6 11.2
2014-Jul-23 12:01N 62°60' W 008°01'0 0.5 11.2
2014-Jul-23 11:01N 62°59' W 008°00'0 0.2 11.2
2014-Jul-23 10:01N 62°59' W 008°01'1 0.8 11.1
2014-Jul-23 09:01N 62°59' W 008°02'1 1.3 11.1
2014-Jul-23 08:01N 62°58' W 008°04'1 1.5 11.1
2014-Jul-23 07:01N 62°57' W 008°06'1 1.3 11.0
2014-Jul-23 06:01N 62°56' W 008°09'1 1.3 10.9
2014-Jul-23 05:01N 62°55' W 008°11'1 1.2 11.0
2014-Jul-23 04:01N 62°54' W 008°12'1 0.7 11.0
2014-Jul-23 03:01N 62°54' W 008°14'0 0.5 11.0
2014-Jul-23 02:01N 62°53' W 008°14'0 0.3 11.1
2014-Jul-23 01:01N 62°53' W 008°15'0 0.3 11.1
2014-Jul-23 00:01N 62°54' W 008°15'1 0.6 11.0
2014-Jul-22 22:01N 62°54' W 008°18'1 0.8 11.0
2014-Jul-22 21:01N 62°54' W 008°19'1 0.8 11.1
2014-Jul-22 20:01N 62°54' W 008°21'2 0.9 11.1
2014-Jul-22 18:01N 62°54' W 008°25'1 0.8 11.1
2014-Jul-22 17:01N 62°54' W 008°26'1 0.6 11.1
2014-Jul-22 16:01N 62°53' W 008°27'0 0.3 11.1
2014-Jul-22 15:01N 62°53' W 008°28'0 0.1 11.1
2014-Jul-22 14:01N 62°53' W 008°28'0 0.3 11.0
2014-Jul-22 13:01N 62°54' W 008°28'1 0.6 11.0
2014-Jul-22 12:01N 62°54' W 008°28'1 0.8 11.0
2014-Jul-22 11:01N 62°55' W 008°28'1 0.8 11.0
2014-Jul-22 10:01N 62°56' W 008°28'1 1.0 11.0
2014-Jul-22 09:01N 62°57' W 008°30'1 0.9 11.0
2014-Jul-22 08:01N 62°57' W 008°32'1 0.9 11.0
2014-Jul-22 07:01N 62°57' W 008°33'1 0.8 11.0
2014-Jul-22 06:01N 62°57' W 008°35'1 0.7 11.0
2014-Jul-22 05:01N 62°57' W 008°37'0 0.5 11.0
2014-Jul-22 04:01N 62°56' W 008°37'0 0.4 11.1
2014-Jul-22 03:01N 62°56' W 008°38'0 0.2 11.1
2014-Jul-22 02:01N 62°56' W 008°37'0 0.4 11.1
2014-Jul-22 01:01N 62°56' W 008°37'1 0.8 11.1
2014-Jul-22 00:01N 62°57' W 008°36'1 1.0 11.1
2014-Jul-21 23:01N 62°58' W 008°35'1 1.0 11.1
2014-Jul-21 22:01N 62°59' W 008°35'1 0.9 11.1
2014-Jul-21 21:01N 62°60' W 008°35'1 0.6 11.2
2014-Jul-21 20:01N 63°00' W 008°36'1 0.5 11.2
2014-Jul-21 19:01N 63°00' W 008°37'0 0.4 11.2
2014-Jul-21 18:01N 63°00' W 008°38'0 0.3 11.2
2014-Jul-21 17:01N 63°00' W 008°39'0 0.4 11.2
2014-Jul-21 16:01N 63°01' W 008°39'0 0.4 11.3
2014-Jul-21 15:01N 63°01' W 008°40'0 0.2 11.4
2014-Jul-21 14:01N 63°01' W 008°40'0 0.1 11.5
2014-Jul-21 13:01N 63°01' W 008°40'0 0.3 12.0
2014-Jul-21 12:01N 63°01' W 008°40'1 0.6 11.9
2014-Jul-21 11:01N 63°02' W 008°39'1 0.8 11.3
2014-Jul-21 10:01N 63°02' W 008°38'1 0.8 11.2
2014-Jul-21 09:01N 63°03' W 008°38'1 0.8 11.2
2014-Jul-21 08:01N 63°04' W 008°38'1 0.8 11.2
2014-Jul-21 07:01N 63°04' W 008°40'1 0.8 11.2
2014-Jul-21 06:01N 63°05' W 008°41'1 0.9 11.2
2014-Jul-21 05:01N 63°04' W 008°43'1 0.9 11.2
2014-Jul-21 04:01N 63°04' W 008°45'1 0.7 11.2
2014-Jul-21 03:01N 63°03' W 008°46'1 0.5 11.2
2014-Jul-21 02:01N 63°03' W 008°46'1 0.5 11.2
2014-Jul-21 01:01N 63°03' W 008°45'1 0.6 11.1
2014-Jul-21 00:01N 63°03' W 008°44'1 0.6 11.2
2014-Jul-20 23:01N 63°03' W 008°43'1 0.7 11.2
2014-Jul-20 22:01N 63°03' W 008°42'1 0.8 11.1
2014-Jul-20 21:01N 63°04' W 008°41'1 0.7 11.2
2014-Jul-20 20:01N 63°05' W 008°41'0 0.5 11.2
2014-Jul-20 19:01N 63°05' W 008°41'1 0.6 11.2
2014-Jul-20 18:01N 63°06' W 008°42'1 0.7 11.2
2014-Jul-20 17:01N 63°06' W 008°44'1 0.8 11.2
2014-Jul-20 16:01N 63°05' W 008°46'1 0.8 11.2
2014-Jul-20 15:01N 63°05' W 008°47'1 0.7 11.1
2014-Jul-20 14:01N 63°04' W 008°48'1 0.6 11.0
2014-Jul-20 13:01N 63°04' W 008°47'1 0.8 11.1
2014-Jul-20 12:01N 63°04' W 008°46'1 0.9 11.2
2014-Jul-20 11:01N 63°04' W 008°44'1 1.0 11.2
2014-Jul-20 10:01N 63°04' W 008°42'1 1.2 11.3
2014-Jul-20 09:01N 63°05' W 008°40'1 1.0 11.2
2014-Jul-20 08:01N 63°06' W 008°39'1 0.7 11.2
2014-Jul-20 07:01N 63°07' W 008°39'1 0.6 11.2
2014-Jul-20 06:01N 63°07' W 008°41'0 0.5 11.2
2014-Jul-20 05:01N 63°07' W 008°42'1 0.5 11.1
2014-Jul-20 04:01N 63°07' W 008°43'1 0.7 11.1
2014-Jul-20 03:01N 63°06' W 008°44'1 0.5 11.2
2014-Jul-20 02:01N 63°06' W 008°44'   11.2

Dump ship's entire track history